Little Rock, AR (72212)

2:46 PM CDT on April 19, 2015 (GMT -0500)
Turtle Creek | | Change Station
CLOSE
Current Station
Personal Weather Station
Location: Little Rock, AR
Elevation: 577 ft
Nearby Weather Stations
Active Advisory: Severe Thunderstorm Watch

Elev 577 ft 34.76 °N, 92.41 °W | Updated 2 minutes ago

Partly Cloudy
Partly Cloudy
81.7 °F
Feels Like 82 °F
N
0.0
Wind Variable Wind from WNW

Today
High -- | Low -- °F
--% Chance of Precip.
Yesterday
High -- | Low -- °F
Precip. -- in
6:33 AM 7:44 PM
New Moon, 2% visible
Pressure 29.68 in
Visibility 10.0 miles
Clouds Scattered Clouds 5000 ft
Scattered Clouds 20000 ft
Heat Index 82 °F
Dew Point 58 °F
Humidity 45%
Rainfall 0.00 in
Snow Depth Not available.
UV 8 out of 12
Pollen 9.40 out of 12
Air Quality Not available.
Flu Activity Sporadic
METAR KLIT 191853Z 22006G14KT 10SM SCT050 SCT200 27/13 A2967 RMK AO2 SLP048 T02670128

More Conditions Fewer Conditions

Pressure 29.68 in
Visibility 10.0 miles
Clouds Scattered Clouds 5000 ft
Scattered Clouds 20000 ft
Heat Index 82 °F
Dew Point 58 °F
Humidity 45%
Rainfall 0.00 in
Snow Depth Not available.
UV 8 out of 12
Pollen 9.40 out of 12
Air Quality Not available.
Flu Activity Sporadic
METAR KLIT 191853Z 22006G14KT 10SM SCT050 SCT200 27/13 A2967 RMK AO2 SLP048 T02670128

More Conditions Fewer Conditions

10-Day Weather Forecast

Almanac

Astronomy

Apr. 19, 2015 Rise Set
Actual Time
Civil Twilight
Nautical Twilight
Astronomical Twilight
Moon
Length of Visible Light
Length of Day
Tomorrow will be .
, % of the Moon is Illuminated

Today's Extremes

State Highs State Lows

Community

WunderPhotos

Upload Photos

1,814,950 photos uploaded!

WunderBlogs® & News

Nearby

Air Quality

  Air Quality AQ Index Pollutant
Not available.

Snow Depth

Station Depth Elevation

Earthquake Activity

City Distance Mag. Time & Date
Minimum magnitude displayed is 2.5.

Coastal Water Temperatures

Place Temperature

Stations

Nearby Weather Stations

Station Location Temp. Windchill Dew Point Humidity Wind Precip. Elev Updated Type
                   
Severe Thunderstorm Watch
Statement as of 2:43 PM CDT on April 19, 2015

Severe Thunderstorm Watch 80 remains in effect until 800 PM CDT
for the following locations


AR
. Arkansas counties included are

Baxter Benton Boone
Carroll Conway Crawford
Faulkner Franklin Garland
Grant Hot Spring Johnson
Logan Madison Marion
Montgomery Newton Perry
Polk Pope Pulaski
Saline Scott Searcy
Sebastian Van Buren Washington
Yell